首页
METAR-TAF:

METAR-TAF

机场 :

斯坦頓縣, 堪薩斯州, 美国

纬度: 37-35-07N, 经度: 101-43-56W, 海拔: 1013米

当前天气观测

该预报发布于23分钟前的15:55 UTC
风速13节,风向南转西南,有时为20节阵风
温度 28°C
湿度 48%
气压 1012 hPa
能見度: 16.1公里
天空无云

METAR: KJHN 151555Z AUTO 21013G20KT 10SM CLR 28/16 A2988 RMK AO2 T02780162

时间: 11:18 (16:18 UTC)


TAF: 丢失

超过4000个机场的气象观测和天气预报(METAR&TAF报告)。

可查询的气象台以黄色和红色小点在地图上表示。

将鼠标移到小点上方,可查看气象台名称。

然后点击查看天气观测和预报。

如需切换地图:点击带黑十字的绿色按钮放大地图;点击带横线的绿色按钮缩小地图;或者点击绿色箭头查看邻近地区的地图。


METAR-TAF: